« 基地創設60周年記念入間航空祭【飛行展示編1】 入間飛行場 2018/11/3 sat | トップページ | 趣味的航空路誌改訂情報 2018/11/8 thu »

2018/11/07

基地創設60周年記念入間航空祭【飛行展示編2】 入間飛行場 2018/11/3 sat

その1からつづき

20181103_rjtj_368c1

マイクフライトはダイヤモンド

20181103_rjtj_369c1

20181103_rjtj_370c781026

78-1026 C-1 402SQ

20181103_rjtj_371c781025

78-1025 C-1 402SQ

20181103_rjtj_372c781025

八の字

20181103_rjtj_373c181031

パイロット降下

20181103_rjtj_374t165797

#797 地上では、シルバーさんがタクシーアウト

20181103_rjtj_375t765757

#757

20181103_rjtj_376c181031

18-1031 C-1 402SQ

20181103_rjtj_377pj

こうか こうか こうか

20181103_rjtj_378pj

空飛ぶ茸

METAR RJTJ 030200Z VRB02KT 9999 FEW030 16/06 Q1025 RMK 1CU030 A3029

20181103_rjtj_379c781025

低空で進入してピッチ

20181103_rjtj_380c781025

機動担当

20181103_rjtj_381c781025

#025

20181103_rjtj_382c781026

エシュロンで進入してブレイク

20181103_rjtj_383c781026

歌舞伎ぃぃ

20181103_rjtj_384c781025

#025 スポットイン

20181103_rjtj_385c681014

68-1014 C-1 402SQ

20181103_rjtj_386c181031

#031

20181103_rjtj_387c781026

ローパス

20181103_rjtj_388c681014

エレファントウォークはありましぇん

20181103_rjtj_389c781026

突っ込む

20181103_rjtj_390c781026

20181103_rjtj_391c781026

#026

20181103_rjtj_392c781026

20181103_rjtj_393c781026

20181103_rjtj_394c781026

一幕終了

#1 78-1026
#2 68-1014
#3 78-1025
#4 18-1031

20181103_rjtj_395t165797

#797 シルバーさん気合い

20181103_rjtj_396t165797

20181103_rjtj_397t265674

編隊離陸

20181103_rjtj_398t4

#674 #711 #709

20181103_rjtj_399t465719

#719 #757

20181103_rjtj_400t4

黒いスモーク

20181103_rjtj_401t4

20181103_rjtj_402t965622

#622

20181103_rjtj_403t165797

20181103_rjtj_404t165797

ダイヤモンド

20181103_rjtj_405t4

20181103_rjtj_406t4

編隊航過

20181103_rjtj_407t4

ソロも駆け巡ります

20181103_rjtj_408t165797

デルタ

20181103_rjtj_409t965622

合間にソロ

20181103_rjtj_410t4

7機でクリスマスツリー

20181103_rjtj_411t4

20181103_rjtj_412t4

最後はライトエシュロン

20181103_rjtj_413t4

ブレイク

20181103_rjtj_414t4

トラフィックを一周して、レデュース

20181103_rjtj_415t165797

20181103_rjtj_416t165797

#797

20181103_rjtj_417t465719

#719

20181103_rjtj_418t165797

20181103_rjtj_419t365709

#709

20181103_rjtj_420t465711

#711

20181103_rjtj_421t765757

#757

20181103_rjtj_422t965622

#622

20181103_rjtj_423t465719

#719

20181103_rjtj_424t265674_2

#674

20181103_rjtj_425t965622

エンジンカット

20181103_rjtj_426t4

キレッキレのおじさん達

SILVER-FLT 着陸順

#1 16-5797
#2 36-5709
#3 46-5711
#4 76-5757
#5 96-6222
#6 46-5719
#7 26-5674

20181103_rjtj_427c781026

歌舞伎さんがドナドナされて展示列線へ

20181103_rjtj_428y121160

YSさんもやって来ました。

METAR RJTJ 030300Z 15004KT 050V220 9999 FEW030 18/04 Q1024 RMK
1CU030 A3026

20181103_rjtj_429y121160

ステイ展開デモ

20181103_rjtj_430u393042

U-125も

20181103_rjtj_431u393042

フライトチェッカー独自の記念ステッカー

20181103_rjtj_432u393042

飴ちゃんが欠席なのか、初見の列線出現

次はブルーインパルス

|

« 基地創設60周年記念入間航空祭【飛行展示編1】 入間飛行場 2018/11/3 sat | トップページ | 趣味的航空路誌改訂情報 2018/11/8 thu »

入間飛行場」カテゴリの記事

コメント

コメントを書く



(ウェブ上には掲載しません)


コメントは記事投稿者が公開するまで表示されません。



トラックバック


この記事へのトラックバック一覧です: 基地創設60周年記念入間航空祭【飛行展示編2】 入間飛行場 2018/11/3 sat:

« 基地創設60周年記念入間航空祭【飛行展示編1】 入間飛行場 2018/11/3 sat | トップページ | 趣味的航空路誌改訂情報 2018/11/8 thu »